sensor_id;sensor_type;location;lat;lon;timestamp;P1;P2;P0
62846;PMS5003;49477;35.676;139.586;2023-04-12T00:00:28;10;7;
62846;PMS5003;49477;35.676;139.586;2023-04-12T00:02:58;7;7;
62846;PMS5003;49477;35.676;139.586;2023-04-12T00:05:28;7;6;
62846;PMS5003;49477;35.676;139.586;2023-04-12T00:07:58;11;8;
62846;PMS5003;49477;35.676;139.586;2023-04-12T00:10:29;6;6;
62846;PMS5003;49477;35.676;139.586;2023-04-12T00:12:59;7;5;
62846;PMS5003;49477;35.676;139.586;2023-04-12T00:15:31;9;9;
62846;PMS5003;49477;35.676;139.586;2023-04-12T00:18:01;7;7;
62846;PMS5003;49477;35.676;139.586;2023-04-12T00:20:31;9;7;
62846;PMS5003;49477;35.676;139.586;2023-04-12T00:23:01;9;6;
62846;PMS5003;49477;35.676;139.586;2023-04-12T00:25:30;9;8;
62846;PMS5003;49477;35.676;139.586;2023-04-12T00:28:01;7;7;
62846;PMS5003;49477;35.676;139.586;2023-04-12T00:30:30;9;7;
62846;PMS5003;49477;35.676;139.586;2023-04-12T00:33:01;10;8;
62846;PMS5003;49477;35.676;139.586;2023-04-12T00:35:31;8;8;
62846;PMS5003;49477;35.676;139.586;2023-04-12T00:38:01;9;9;
62846;PMS5003;49477;35.676;139.586;2023-04-12T00:40:30;7;6;
62846;PMS5003;49477;35.676;139.586;2023-04-12T00:42:59;7;7;
62846;PMS5003;49477;35.676;139.586;2023-04-12T00:45:29;7;7;
62846;PMS5003;49477;35.676;139.586;2023-04-12T00:47:58;8;8;
62846;PMS5003;49477;35.676;139.586;2023-04-12T00:50:28;8;8;
62846;PMS5003;49477;35.676;139.586;2023-04-12T00:52:57;6;6;
62846;PMS5003;49477;35.676;139.586;2023-04-12T00:55:27;9;5;
62846;PMS5003;49477;35.676;139.586;2023-04-12T00:57:56;8;6;
62846;PMS5003;49477;35.676;139.586;2023-04-12T01:00:26;8;6;
62846;PMS5003;49477;35.676;139.586;2023-04-12T01:02:55;5;5;
62846;PMS5003;49477;35.676;139.586;2023-04-12T01:05:26;7;6;
62846;PMS5003;49477;35.676;139.586;2023-04-12T01:08:01;5;5;
62846;PMS5003;49477;35.676;139.586;2023-04-12T01:10:37;7;5;
62846;PMS5003;49477;35.676;139.586;2023-04-12T01:13:19;6;6;
62846;PMS5003;49477;35.676;139.586;2023-04-12T01:15:57;7;6;
62846;PMS5003;49477;35.676;139.586;2023-04-12T01:18:35;7;5;
62846;PMS5003;49477;35.676;139.586;2023-04-12T01:21:08;8;7;
62846;PMS5003;49477;35.676;139.586;2023-04-12T01:23:50;6;6;
62846;PMS5003;49477;35.676;139.586;2023-04-12T01:26:32;9;8;
62846;PMS5003;49477;35.676;139.586;2023-04-12T01:29:11;9;9;
62846;PMS5003;49477;35.676;139.586;2023-04-12T01:31:45;9;5;
62846;PMS5003;49477;35.676;139.586;2023-04-12T01:34:17;9;9;
62846;PMS5003;49477;35.676;139.586;2023-04-12T01:36:48;8;6;
62846;PMS5003;49477;35.676;139.586;2023-04-12T01:39:23;6;6;
62846;PMS5003;49477;35.676;139.586;2023-04-12T01:41:53;6;6;
62846;PMS5003;49477;35.676;139.586;2023-04-12T01:44:22;7;7;
62846;PMS5003;49477;35.676;139.586;2023-04-12T01:46:52;7;5;
62846;PMS5003;49477;35.676;139.586;2023-04-12T01:49:21;6;6;
62846;PMS5003;49477;35.676;139.586;2023-04-12T01:52:00;7;6;
62846;PMS5003;49477;35.676;139.586;2023-04-12T01:54:41;7;7;
62846;PMS5003;49477;35.676;139.586;2023-04-12T01:57:15;7;7;
62846;PMS5003;49477;35.676;139.586;2023-04-12T01:59:47;7;7;
62846;PMS5003;49477;35.676;139.586;2023-04-12T02:02:18;9;8;
62846;PMS5003;49477;35.676;139.586;2023-04-12T02:04:47;7;6;
62846;PMS5003;49477;35.676;139.586;2023-04-12T02:07:18;6;6;
62846;PMS5003;49477;35.676;139.586;2023-04-12T02:09:48;6;6;
62846;PMS5003;49477;35.676;139.586;2023-04-12T02:12:17;7;6;
62846;PMS5003;49477;35.676;139.586;2023-04-12T02:14:47;7;7;
62846;PMS5003;49477;35.676;139.586;2023-04-12T02:17:17;6;6;
62846;PMS5003;49477;35.676;139.586;2023-04-12T02:19:46;5;5;
62846;PMS5003;49477;35.676;139.586;2023-04-12T02:22:16;7;6;
62846;PMS5003;49477;35.676;139.586;2023-04-12T02:24:45;9;6;
62846;PMS5003;49477;35.676;139.586;2023-04-12T02:27:15;7;7;
62846;PMS5003;49477;35.676;139.586;2023-04-12T02:29:44;7;6;
62846;PMS5003;49477;35.676;139.586;2023-04-12T02:32:14;9;8;
62846;PMS5003;49477;35.676;139.586;2023-04-12T02:34:43;8;6;
62846;PMS5003;49477;35.676;139.586;2023-04-12T02:37:13;6;6;
62846;PMS5003;49477;35.676;139.586;2023-04-12T02:39:42;9;8;
62846;PMS5003;49477;35.676;139.586;2023-04-12T02:42:12;9;8;
62846;PMS5003;49477;35.676;139.586;2023-04-12T02:44:41;6;6;
62846;PMS5003;49477;35.676;139.586;2023-04-12T02:47:11;9;6;
62846;PMS5003;49477;35.676;139.586;2023-04-12T02:49:40;9;8;
62846;PMS5003;49477;35.676;139.586;2023-04-12T02:52:10;7;5;
62846;PMS5003;49477;35.676;139.586;2023-04-12T02:54:39;8;7;
62846;PMS5003;49477;35.676;139.586;2023-04-12T02:57:09;8;6;
62846;PMS5003;49477;35.676;139.586;2023-04-12T02:59:38;8;8;
62846;PMS5003;49477;35.676;139.586;2023-04-12T03:02:08;8;8;
62846;PMS5003;49477;35.676;139.586;2023-04-12T03:04:37;8;8;
62846;PMS5003;49477;35.676;139.586;2023-04-12T03:07:07;7;5;
62846;PMS5003;49477;35.676;139.586;2023-04-12T03:09:36;5;5;
62846;PMS5003;49477;35.676;139.586;2023-04-12T03:12:06;6;6;
62846;PMS5003;49477;35.676;139.586;2023-04-12T03:14:36;7;7;
62846;PMS5003;49477;35.676;139.586;2023-04-12T03:17:05;6;6;
62846;PMS5003;49477;35.676;139.586;2023-04-12T03:19:35;8;8;
62846;PMS5003;49477;35.676;139.586;2023-04-12T03:22:05;8;6;
62846;PMS5003;49477;35.676;139.586;2023-04-12T03:24:34;7;7;
62846;PMS5003;49477;35.676;139.586;2023-04-12T03:27:04;12;8;
62846;PMS5003;49477;35.676;139.586;2023-04-12T03:29:33;7;7;
62846;PMS5003;49477;35.676;139.586;2023-04-12T03:32:02;11;9;
62846;PMS5003;49477;35.676;139.586;2023-04-12T03:34:32;7;7;
62846;PMS5003;49477;35.676;139.586;2023-04-12T03:37:01;7;7;
62846;PMS5003;49477;35.676;139.586;2023-04-12T03:39:31;10;9;
62846;PMS5003;49477;35.676;139.586;2023-04-12T03:42:00;11;8;
62846;PMS5003;49477;35.676;139.586;2023-04-12T03:44:31;10;9;
62846;PMS5003;49477;35.676;139.586;2023-04-12T03:47:01;9;7;
62846;PMS5003;49477;35.676;139.586;2023-04-12T03:49:32;10;8;
62846;PMS5003;49477;35.676;139.586;2023-04-12T03:52:02;11;10;
62846;PMS5003;49477;35.676;139.586;2023-04-12T03:54:32;16;11;
62846;PMS5003;49477;35.676;139.586;2023-04-12T03:57:02;12;11;
62846;PMS5003;49477;35.676;139.586;2023-04-12T03:59:31;10;10;
62846;PMS5003;49477;35.676;139.586;2023-04-12T04:02:00;12;10;
62846;PMS5003;49477;35.676;139.586;2023-04-12T04:04:29;13;12;
62846;PMS5003;49477;35.676;139.586;2023-04-12T04:06:59;13;11;
62846;PMS5003;49477;35.676;139.586;2023-04-12T04:09:30;16;14;
62846;PMS5003;49477;35.676;139.586;2023-04-12T04:12:00;13;12;
62846;PMS5003;49477;35.676;139.586;2023-04-12T04:14:30;13;13;
62846;PMS5003;49477;35.676;139.586;2023-04-12T04:17:00;13;13;
62846;PMS5003;49477;35.676;139.586;2023-04-12T04:19:29;13;13;
62846;PMS5003;49477;35.676;139.586;2023-04-12T04:21:59;15;12;
62846;PMS5003;49477;35.676;139.586;2023-04-12T04:24:29;13;12;
62846;PMS5003;49477;35.676;139.586;2023-04-12T04:26:58;11;11;
62846;PMS5003;49477;35.676;139.586;2023-04-12T04:29:28;13;10;
62846;PMS5003;49477;35.676;139.586;2023-04-12T04:31:57;15;13;
62846;PMS5003;49477;35.676;139.586;2023-04-12T04:34:27;14;11;
62846;PMS5003;49477;35.676;139.586;2023-04-12T04:36:56;19;16;
62846;PMS5003;49477;35.676;139.586;2023-04-12T04:39:26;12;12;
62846;PMS5003;49477;35.676;139.586;2023-04-12T04:41:56;14;13;
62846;PMS5003;49477;35.676;139.586;2023-04-12T04:44:27;14;13;
62846;PMS5003;49477;35.676;139.586;2023-04-12T04:46:57;13;13;
62846;PMS5003;49477;35.676;139.586;2023-04-12T04:49:27;13;11;
62846;PMS5003;49477;35.676;139.586;2023-04-12T04:51:56;15;15;
62846;PMS5003;49477;35.676;139.586;2023-04-12T04:54:25;13;11;
62846;PMS5003;49477;35.676;139.586;2023-04-12T04:56:54;15;13;
62846;PMS5003;49477;35.676;139.586;2023-04-12T04:59:24;16;12;
62846;PMS5003;49477;35.676;139.586;2023-04-12T05:01:54;12;11;
62846;PMS5003;49477;35.676;139.586;2023-04-12T05:04:24;14;13;
62846;PMS5003;49477;35.676;139.586;2023-04-12T05:06:54;12;11;
62846;PMS5003;49477;35.676;139.586;2023-04-12T05:09:24;12;12;
62846;PMS5003;49477;35.676;139.586;2023-04-12T05:11:53;13;10;
62846;PMS5003;49477;35.676;139.586;2023-04-12T05:14:22;14;13;
62846;PMS5003;49477;35.676;139.586;2023-04-12T05:16:52;12;12;
62846;PMS5003;49477;35.676;139.586;2023-04-12T05:19:22;15;13;
62846;PMS5003;49477;35.676;139.586;2023-04-12T05:21:53;11;10;
62846;PMS5003;49477;35.676;139.586;2023-04-12T05:24:22;11;11;
62846;PMS5003;49477;35.676;139.586;2023-04-12T05:26:53;12;10;
62846;PMS5003;49477;35.676;139.586;2023-04-12T05:29:22;12;12;
62846;PMS5003;49477;35.676;139.586;2023-04-12T05:31:52;15;13;
62846;PMS5003;49477;35.676;139.586;2023-04-12T05:34:21;12;10;
62846;PMS5003;49477;35.676;139.586;2023-04-12T05:36:50;17;15;
62846;PMS5003;49477;35.676;139.586;2023-04-12T05:39:20;10;9;
62846;PMS5003;49477;35.676;139.586;2023-04-12T05:41:49;16;13;
62846;PMS5003;49477;35.676;139.586;2023-04-12T05:44:19;11;11;
62846;PMS5003;49477;35.676;139.586;2023-04-12T05:46:49;17;13;
62846;PMS5003;49477;35.676;139.586;2023-04-12T05:49:20;12;12;
62846;PMS5003;49477;35.676;139.586;2023-04-12T05:51:50;14;11;
62846;PMS5003;49477;35.676;139.586;2023-04-12T05:54:19;13;13;
62846;PMS5003;49477;35.676;139.586;2023-04-12T05:56:49;13;11;
62846;PMS5003;49477;35.676;139.586;2023-04-12T05:59:18;12;10;
62846;PMS5003;49477;35.676;139.586;2023-04-12T06:01:48;11;9;
62846;PMS5003;49477;35.676;139.586;2023-04-12T06:04:18;13;11;
62846;PMS5003;49477;35.676;139.586;2023-04-12T06:06:48;10;10;
62846;PMS5003;49477;35.676;139.586;2023-04-12T06:09:18;12;12;
62846;PMS5003;49477;35.676;139.586;2023-04-12T06:11:47;13;12;
62846;PMS5003;49477;35.676;139.586;2023-04-12T06:14:17;12;12;
62846;PMS5003;49477;35.676;139.586;2023-04-12T06:16:46;18;14;
62846;PMS5003;49477;35.676;139.586;2023-04-12T06:19:16;13;11;
62846;PMS5003;49477;35.676;139.586;2023-04-12T06:21:45;12;12;
62846;PMS5003;49477;35.676;139.586;2023-04-12T06:24:15;14;11;
62846;PMS5003;49477;35.676;139.586;2023-04-12T06:26:44;14;11;
62846;PMS5003;49477;35.676;139.586;2023-04-12T06:29:14;13;12;
62846;PMS5003;49477;35.676;139.586;2023-04-12T06:31:42;13;11;
62846;PMS5003;49477;35.676;139.586;2023-04-12T06:34:12;12;9;
62846;PMS5003;49477;35.676;139.586;2023-04-12T06:36:41;12;10;
62846;PMS5003;49477;35.676;139.586;2023-04-12T06:39:10;14;14;
62846;PMS5003;49477;35.676;139.586;2023-04-12T06:41:40;13;13;
62846;PMS5003;49477;35.676;139.586;2023-04-12T06:44:09;10;10;
62846;PMS5003;49477;35.676;139.586;2023-04-12T06:46:38;12;12;
62846;PMS5003;49477;35.676;139.586;2023-04-12T06:49:08;10;10;
62846;PMS5003;49477;35.676;139.586;2023-04-12T06:51:37;13;11;
62846;PMS5003;49477;35.676;139.586;2023-04-12T06:54:06;12;12;
62846;PMS5003;49477;35.676;139.586;2023-04-12T06:56:36;15;13;
62846;PMS5003;49477;35.676;139.586;2023-04-12T06:59:05;11;11;
62846;PMS5003;49477;35.676;139.586;2023-04-12T07:01:35;9;9;
62846;PMS5003;49477;35.676;139.586;2023-04-12T07:04:04;11;11;
62846;PMS5003;49477;35.676;139.586;2023-04-12T07:06:35;10;9;
62846;PMS5003;49477;35.676;139.586;2023-04-12T07:09:04;13;13;
62846;PMS5003;49477;35.676;139.586;2023-04-12T07:11:33;13;10;
62846;PMS5003;49477;35.676;139.586;2023-04-12T07:14:03;12;12;
62846;PMS5003;49477;35.676;139.586;2023-04-12T07:16:33;9;9;
62846;PMS5003;49477;35.676;139.586;2023-04-12T07:19:03;11;11;
62846;PMS5003;49477;35.676;139.586;2023-04-12T07:21:33;13;13;
62846;PMS5003;49477;35.676;139.586;2023-04-12T07:24:02;11;11;
62846;PMS5003;49477;35.676;139.586;2023-04-12T07:26:33;16;13;
62846;PMS5003;49477;35.676;139.586;2023-04-12T07:29:02;15;11;
62846;PMS5003;49477;35.676;139.586;2023-04-12T07:31:32;14;13;
62846;PMS5003;49477;35.676;139.586;2023-04-12T07:34:01;16;11;
62846;PMS5003;49477;35.676;139.586;2023-04-12T07:36:30;13;10;
62846;PMS5003;49477;35.676;139.586;2023-04-12T07:39:00;12;11;
62846;PMS5003;49477;35.676;139.586;2023-04-12T07:41:29;15;14;
62846;PMS5003;49477;35.676;139.586;2023-04-12T07:43:58;17;15;
62846;PMS5003;49477;35.676;139.586;2023-04-12T07:46:28;11;11;
62846;PMS5003;49477;35.676;139.586;2023-04-12T07:48:57;13;13;
62846;PMS5003;49477;35.676;139.586;2023-04-12T07:51:27;14;11;
62846;PMS5003;49477;35.676;139.586;2023-04-12T07:53:57;12;11;
62846;PMS5003;49477;35.676;139.586;2023-04-12T07:56:26;16;13;
62846;PMS5003;49477;35.676;139.586;2023-04-12T07:58:56;11;11;
62846;PMS5003;49477;35.676;139.586;2023-04-12T08:01:25;13;13;
62846;PMS5003;49477;35.676;139.586;2023-04-12T08:03:54;14;11;
62846;PMS5003;49477;35.676;139.586;2023-04-12T08:06:24;19;13;
62846;PMS5003;49477;35.676;139.586;2023-04-12T08:08:53;12;12;
62846;PMS5003;49477;35.676;139.586;2023-04-12T08:11:23;14;12;
62846;PMS5003;49477;35.676;139.586;2023-04-12T08:13:52;17;13;
62846;PMS5003;49477;35.676;139.586;2023-04-12T08:16:28;14;11;
62846;PMS5003;49477;35.676;139.586;2023-04-12T08:18:57;15;12;
62846;PMS5003;49477;35.676;139.586;2023-04-12T08:21:27;14;11;
62846;PMS5003;49477;35.676;139.586;2023-04-12T08:23:56;11;10;
62846;PMS5003;49477;35.676;139.586;2023-04-12T08:26:27;9;9;
62846;PMS5003;49477;35.676;139.586;2023-04-12T08:28:57;7;7;
62846;PMS5003;49477;35.676;139.586;2023-04-12T08:31:26;11;11;
62846;PMS5003;49477;35.676;139.586;2023-04-12T08:33:56;14;11;
62846;PMS5003;49477;35.676;139.586;2023-04-12T08:36:25;13;13;
62846;PMS5003;49477;35.676;139.586;2023-04-12T08:38:57;12;10;
62846;PMS5003;49477;35.676;139.586;2023-04-12T08:41:27;15;13;
62846;PMS5003;49477;35.676;139.586;2023-04-12T08:43:56;13;10;
62846;PMS5003;49477;35.676;139.586;2023-04-12T08:46:28;18;14;
62846;PMS5003;49477;35.676;139.586;2023-04-12T08:49:02;12;11;
62846;PMS5003;49477;35.676;139.586;2023-04-12T08:51:31;11;11;
62846;PMS5003;49477;35.676;139.586;2023-04-12T08:54:02;14;12;
62846;PMS5003;49477;35.676;139.586;2023-04-12T08:56:33;14;12;
62846;PMS5003;49477;35.676;139.586;2023-04-12T08:59:02;13;11;
62846;PMS5003;49477;35.676;139.586;2023-04-12T09:01:32;13;12;
62846;PMS5003;49477;35.676;139.586;2023-04-12T09:04:05;9;8;
62846;PMS5003;49477;35.676;139.586;2023-04-12T09:06:36;12;9;
62846;PMS5003;49477;35.676;139.586;2023-04-12T09:09:05;11;11;
62846;PMS5003;49477;35.676;139.586;2023-04-12T09:11:40;11;11;
62846;PMS5003;49477;35.676;139.586;2023-04-12T09:14:25;14;13;
62846;PMS5003;49477;35.676;139.586;2023-04-12T09:16:54;13;12;
62846;PMS5003;49477;35.676;139.586;2023-04-12T09:19:30;11;11;
62846;PMS5003;49477;35.676;139.586;2023-04-12T09:22:00;12;9;
62846;PMS5003;49477;35.676;139.586;2023-04-12T09:24:45;10;10;
62846;PMS5003;49477;35.676;139.586;2023-04-12T09:27:16;13;11;
62846;PMS5003;49477;35.676;139.586;2023-04-12T09:29:47;11;10;
62846;PMS5003;49477;35.676;139.586;2023-04-12T09:32:34;14;9;
62846;PMS5003;49477;35.676;139.586;2023-04-12T09:35:05;9;9;
62846;PMS5003;49477;35.676;139.586;2023-04-12T09:37:35;10;10;
62846;PMS5003;49477;35.676;139.586;2023-04-12T09:40:08;10;9;
62846;PMS5003;49477;35.676;139.586;2023-04-12T09:42:49;11;9;
62846;PMS5003;49477;35.676;139.586;2023-04-12T09:45:20;9;9;
62846;PMS5003;49477;35.676;139.586;2023-04-12T09:47:51;10;9;
62846;PMS5003;49477;35.676;139.586;2023-04-12T09:50:21;12;10;
62846;PMS5003;49477;35.676;139.586;2023-04-12T09:52:54;6;6;
62846;PMS5003;49477;35.676;139.586;2023-04-12T09:55:24;12;12;
62846;PMS5003;49477;35.676;139.586;2023-04-12T09:57:59;7;6;
62846;PMS5003;49477;35.676;139.586;2023-04-12T10:00:30;8;6;
62846;PMS5003;49477;35.676;139.586;2023-04-12T10:03:01;6;6;
62846;PMS5003;49477;35.676;139.586;2023-04-12T10:05:30;7;7;
62846;PMS5003;49477;35.676;139.586;2023-04-12T10:08:00;8;6;
62846;PMS5003;49477;35.676;139.586;2023-04-12T10:10:31;7;7;
62846;PMS5003;49477;35.676;139.586;2023-04-12T10:13:01;8;7;
62846;PMS5003;49477;35.676;139.586;2023-04-12T10:15:32;7;6;
62846;PMS5003;49477;35.676;139.586;2023-04-12T10:18:02;10;9;
62846;PMS5003;49477;35.676;139.586;2023-04-12T10:20:32;7;6;
62846;PMS5003;49477;35.676;139.586;2023-04-12T10:23:02;8;8;
62846;PMS5003;49477;35.676;139.586;2023-04-12T10:25:38;8;7;
62846;PMS5003;49477;35.676;139.586;2023-04-12T10:28:16;6;6;
62846;PMS5003;49477;35.676;139.586;2023-04-12T10:30:46;7;7;
62846;PMS5003;49477;35.676;139.586;2023-04-12T10:33:16;7;7;
62846;PMS5003;49477;35.676;139.586;2023-04-12T10:35:51;8;8;
62846;PMS5003;49477;35.676;139.586;2023-04-12T10:38:22;7;7;
62846;PMS5003;49477;35.676;139.586;2023-04-12T10:41:10;7;6;
62846;PMS5003;49477;35.676;139.586;2023-04-12T10:43:42;11;8;
62846;PMS5003;49477;35.676;139.586;2023-04-12T10:47:54;12;8;
62846;PMS5003;49477;35.676;139.586;2023-04-12T10:50:24;7;7;
62846;PMS5003;49477;35.676;139.586;2023-04-12T10:53:28;5;5;
62846;PMS5003;49477;35.676;139.586;2023-04-12T10:55:58;7;5;
62846;PMS5003;49477;35.676;139.586;2023-04-12T10:59:00;3;3;
62846;PMS5003;49477;35.676;139.586;2023-04-12T11:01:31;4;4;
62846;PMS5003;49477;35.676;139.586;2023-04-12T11:04:09;2;2;
62846;PMS5003;49477;35.676;139.586;2023-04-12T11:06:42;4;4;
62846;PMS5003;49477;35.676;139.586;2023-04-12T11:09:18;6;6;
62846;PMS5003;49477;35.676;139.586;2023-04-12T11:11:48;5;5;
62846;PMS5003;49477;35.676;139.586;2023-04-12T11:14:17;4;4;
62846;PMS5003;49477;35.676;139.586;2023-04-12T11:17:27;5;4;
62846;PMS5003;49477;35.676;139.586;2023-04-12T11:19:59;5;5;
62846;PMS5003;49477;35.676;139.586;2023-04-12T11:22:30;5;5;
62846;PMS5003;49477;35.676;139.586;2023-04-12T11:25:00;7;4;
62846;PMS5003;49477;35.676;139.586;2023-04-12T11:27:30;7;7;
62846;PMS5003;49477;35.676;139.586;2023-04-12T11:30:00;6;4;
62846;PMS5003;49477;35.676;139.586;2023-04-12T11:32:29;7;6;
62846;PMS5003;49477;35.676;139.586;2023-04-12T11:34:59;14;8;
62846;PMS5003;49477;35.676;139.586;2023-04-12T11:37:29;9;8;
62846;PMS5003;49477;35.676;139.586;2023-04-12T11:40:02;9;7;
62846;PMS5003;49477;35.676;139.586;2023-04-12T11:42:33;7;5;
62846;PMS5003;49477;35.676;139.586;2023-04-12T11:45:06;7;7;
62846;PMS5003;49477;35.676;139.586;2023-04-12T11:47:41;6;5;
62846;PMS5003;49477;35.676;139.586;2023-04-12T11:50:11;14;8;
62846;PMS5003;49477;35.676;139.586;2023-04-12T11:52:53;10;9;
62846;PMS5003;49477;35.676;139.586;2023-04-12T11:55:35;8;8;
62846;PMS5003;49477;35.676;139.586;2023-04-12T11:58:05;6;6;
62846;PMS5003;49477;35.676;139.586;2023-04-12T12:00:34;12;9;
62846;PMS5003;49477;35.676;139.586;2023-04-12T12:03:04;5;5;
62846;PMS5003;49477;35.676;139.586;2023-04-12T12:05:35;10;9;
62846;PMS5003;49477;35.676;139.586;2023-04-12T12:08:06;11;7;
62846;PMS5003;49477;35.676;139.586;2023-04-12T12:10:37;8;8;
62846;PMS5003;49477;35.676;139.586;2023-04-12T12:13:09;11;8;
62846;PMS5003;49477;35.676;139.586;2023-04-12T12:15:43;10;8;
62846;PMS5003;49477;35.676;139.586;2023-04-12T12:18:12;12;12;
62846;PMS5003;49477;35.676;139.586;2023-04-12T12:20:46;10;10;
62846;PMS5003;49477;35.676;139.586;2023-04-12T12:23:55;11;9;
62846;PMS5003;49477;35.676;139.586;2023-04-12T12:26:26;9;9;
62846;PMS5003;49477;35.676;139.586;2023-04-12T12:28:56;9;9;
62846;PMS5003;49477;35.676;139.586;2023-04-12T12:31:26;8;8;
62846;PMS5003;49477;35.676;139.586;2023-04-12T12:33:56;10;8;
62846;PMS5003;49477;35.676;139.586;2023-04-12T12:36:30;10;10;
62846;PMS5003;49477;35.676;139.586;2023-04-12T12:39:05;10;10;
62846;PMS5003;49477;35.676;139.586;2023-04-12T12:41:35;11;9;
62846;PMS5003;49477;35.676;139.586;2023-04-12T12:44:05;10;9;
62846;PMS5003;49477;35.676;139.586;2023-04-12T12:46:35;11;10;
62846;PMS5003;49477;35.676;139.586;2023-04-12T12:49:04;10;8;
62846;PMS5003;49477;35.676;139.586;2023-04-12T12:51:34;9;7;
62846;PMS5003;49477;35.676;139.586;2023-04-12T12:54:03;8;8;
62846;PMS5003;49477;35.676;139.586;2023-04-12T12:56:33;12;10;
62846;PMS5003;49477;35.676;139.586;2023-04-12T12:59:02;12;8;
62846;PMS5003;49477;35.676;139.586;2023-04-12T13:01:32;11;9;
62846;PMS5003;49477;35.676;139.586;2023-04-12T13:04:02;9;9;
62846;PMS5003;49477;35.676;139.586;2023-04-12T13:06:31;12;10;
62846;PMS5003;49477;35.676;139.586;2023-04-12T13:09:00;14;12;
62846;PMS5003;49477;35.676;139.586;2023-04-12T13:11:29;11;8;
62846;PMS5003;49477;35.676;139.586;2023-04-12T13:13:59;13;9;
62846;PMS5003;49477;35.676;139.586;2023-04-12T13:16:29;9;9;
62846;PMS5003;49477;35.676;139.586;2023-04-12T13:18:59;10;10;
62846;PMS5003;49477;35.676;139.586;2023-04-12T13:21:28;7;7;
62846;PMS5003;49477;35.676;139.586;2023-04-12T13:23:58;12;11;
62846;PMS5003;49477;35.676;139.586;2023-04-12T13:26:27;10;8;
62846;PMS5003;49477;35.676;139.586;2023-04-12T13:28:57;10;10;
62846;PMS5003;49477;35.676;139.586;2023-04-12T13:31:26;11;9;
62846;PMS5003;49477;35.676;139.586;2023-04-12T13:33:55;12;10;
62846;PMS5003;49477;35.676;139.586;2023-04-12T13:36:25;10;10;
62846;PMS5003;49477;35.676;139.586;2023-04-12T13:38:55;11;10;
62846;PMS5003;49477;35.676;139.586;2023-04-12T13:41:24;12;10;
62846;PMS5003;49477;35.676;139.586;2023-04-12T13:43:54;8;8;
62846;PMS5003;49477;35.676;139.586;2023-04-12T13:46:24;11;10;
62846;PMS5003;49477;35.676;139.586;2023-04-12T13:48:53;10;10;
62846;PMS5003;49477;35.676;139.586;2023-04-12T13:51:23;11;10;
62846;PMS5003;49477;35.676;139.586;2023-04-12T13:53:52;6;6;
62846;PMS5003;49477;35.676;139.586;2023-04-12T13:56:22;11;9;
62846;PMS5003;49477;35.676;139.586;2023-04-12T13:58:51;11;10;
62846;PMS5003;49477;35.676;139.586;2023-04-12T14:01:20;9;9;
62846;PMS5003;49477;35.676;139.586;2023-04-12T14:03:50;9;8;
62846;PMS5003;49477;35.676;139.586;2023-04-12T14:06:19;10;9;
62846;PMS5003;49477;35.676;139.586;2023-04-12T14:08:49;10;8;
62846;PMS5003;49477;35.676;139.586;2023-04-12T14:11:18;11;10;
62846;PMS5003;49477;35.676;139.586;2023-04-12T14:13:49;8;8;
62846;PMS5003;49477;35.676;139.586;2023-04-12T14:16:19;10;9;
62846;PMS5003;49477;35.676;139.586;2023-04-12T14:18:48;14;10;
62846;PMS5003;49477;35.676;139.586;2023-04-12T14:21:17;10;9;
62846;PMS5003;49477;35.676;139.586;2023-04-12T14:23:47;8;8;
62846;PMS5003;49477;35.676;139.586;2023-04-12T14:26:16;8;6;
62846;PMS5003;49477;35.676;139.586;2023-04-12T14:28:46;6;6;
62846;PMS5003;49477;35.676;139.586;2023-04-12T14:31:16;6;6;
62846;PMS5003;49477;35.676;139.586;2023-04-12T14:33:45;5;5;
62846;PMS5003;49477;35.676;139.586;2023-04-12T14:36:14;5;5;
62846;PMS5003;49477;35.676;139.586;2023-04-12T14:38:44;8;6;
62846;PMS5003;49477;35.676;139.586;2023-04-12T14:41:14;3;3;
62846;PMS5003;49477;35.676;139.586;2023-04-12T14:43:44;6;5;
62846;PMS5003;49477;35.676;139.586;2023-04-12T14:46:15;4;4;
62846;PMS5003;49477;35.676;139.586;2023-04-12T14:48:46;4;4;
62846;PMS5003;49477;35.676;139.586;2023-04-12T14:51:15;5;5;
62846;PMS5003;49477;35.676;139.586;2023-04-12T14:53:44;4;4;
62846;PMS5003;49477;35.676;139.586;2023-04-12T14:56:18;4;3;
62846;PMS5003;49477;35.676;139.586;2023-04-12T14:58:50;6;3;
62846;PMS5003;49477;35.676;139.586;2023-04-12T15:01:20;7;4;
62846;PMS5003;49477;35.676;139.586;2023-04-12T15:03:49;3;3;
62846;PMS5003;49477;35.676;139.586;2023-04-12T15:06:20;5;4;
62846;PMS5003;49477;35.676;139.586;2023-04-12T15:08:50;3;3;
62846;PMS5003;49477;35.676;139.586;2023-04-12T15:11:19;5;3;
62846;PMS5003;49477;35.676;139.586;2023-04-12T15:13:49;4;4;
62846;PMS5003;49477;35.676;139.586;2023-04-12T15:16:18;3;3;
62846;PMS5003;49477;35.676;139.586;2023-04-12T15:18:48;3;3;
62846;PMS5003;49477;35.676;139.586;2023-04-12T15:21:18;5;4;
62846;PMS5003;49477;35.676;139.586;2023-04-12T15:23:48;5;4;
62846;PMS5003;49477;35.676;139.586;2023-04-12T15:26:17;4;4;
62846;PMS5003;49477;35.676;139.586;2023-04-12T15:28:46;4;4;
62846;PMS5003;49477;35.676;139.586;2023-04-12T15:31:16;6;4;
62846;PMS5003;49477;35.676;139.586;2023-04-12T15:33:46;4;4;
62846;PMS5003;49477;35.676;139.586;2023-04-12T15:36:15;4;4;
62846;PMS5003;49477;35.676;139.586;2023-04-12T15:38:44;4;4;
62846;PMS5003;49477;35.676;139.586;2023-04-12T15:41:14;3;3;
62846;PMS5003;49477;35.676;139.586;2023-04-12T15:43:43;5;3;
62846;PMS5003;49477;35.676;139.586;2023-04-12T15:46:13;7;4;
62846;PMS5003;49477;35.676;139.586;2023-04-12T15:48:42;4;1;
62846;PMS5003;49477;35.676;139.586;2023-04-12T15:51:12;3;3;
62846;PMS5003;49477;35.676;139.586;2023-04-12T15:53:41;7;5;
62846;PMS5003;49477;35.676;139.586;2023-04-12T15:56:11;7;3;
62846;PMS5003;49477;35.676;139.586;2023-04-12T15:58:40;6;4;
62846;PMS5003;49477;35.676;139.586;2023-04-12T16:01:09;7;5;
62846;PMS5003;49477;35.676;139.586;2023-04-12T16:03:39;3;3;
62846;PMS5003;49477;35.676;139.586;2023-04-12T16:06:09;7;7;
62846;PMS5003;49477;35.676;139.586;2023-04-12T16:08:38;8;6;
62846;PMS5003;49477;35.676;139.586;2023-04-12T16:11:07;4;4;
62846;PMS5003;49477;35.676;139.586;2023-04-12T16:13:38;5;4;
62846;PMS5003;49477;35.676;139.586;2023-04-12T16:16:07;6;6;
62846;PMS5003;49477;35.676;139.586;2023-04-12T16:18:37;3;3;
62846;PMS5003;49477;35.676;139.586;2023-04-12T16:21:06;7;4;
62846;PMS5003;49477;35.676;139.586;2023-04-12T16:23:36;7;3;
62846;PMS5003;49477;35.676;139.586;2023-04-12T16:26:05;8;5;
62846;PMS5003;49477;35.676;139.586;2023-04-12T16:28:35;3;2;